createdAt,value
2022-09-28T00:02:21.852Z,36.71
2022-09-28T00:04:48.367Z,36.49
2022-09-28T00:07:14.756Z,36.39
2022-09-28T00:09:41.163Z,36.69
2022-09-28T00:12:07.554Z,36.57
2022-09-28T00:14:34.042Z,36.36
2022-09-28T00:17:00.466Z,36.25
2022-09-28T00:19:26.990Z,36.58
2022-09-28T00:21:53.358Z,36.69
2022-09-28T00:24:24.078Z,36.48
2022-09-28T00:26:55.917Z,36.60
2022-09-28T00:29:24.573Z,36.26
2022-09-28T00:31:53.639Z,36.15
2022-09-28T00:34:20.710Z,36.64
2022-09-28T00:36:48.100Z,36.60
2022-09-28T00:39:15.967Z,36.24
2022-09-28T00:41:42.997Z,36.53
2022-09-28T00:44:35.474Z,36.41
2022-09-28T00:47:24.767Z,36.30
2022-09-28T00:50:00.963Z,36.47
2022-09-28T00:52:36.232Z,36.01
2022-09-28T00:55:07.523Z,36.43
2022-09-28T00:57:35.202Z,36.54
2022-09-28T01:00:03.244Z,36.21
2022-09-28T01:02:29.703Z,36.33
2022-09-28T01:04:58.035Z,36.08
2022-09-28T01:07:24.750Z,36.26
2022-09-28T01:09:51.734Z,36.47
2022-09-28T01:12:18.110Z,36.24
2022-09-28T01:14:45.150Z,36.09
2022-09-28T01:17:16.773Z,35.98
2022-09-28T01:20:13.740Z,35.99
2022-09-28T01:23:13.084Z,36.08
2022-09-28T01:25:53.481Z,36.36
2022-09-28T01:28:25.684Z,36.44
2022-09-28T01:30:58.018Z,36.33
2022-09-28T01:33:29.026Z,36.03
2022-09-28T01:36:05.967Z,36.10
2022-09-28T01:38:39.461Z,36.00
2022-09-28T01:41:07.150Z,36.55
2022-09-28T01:43:38.277Z,36.51
2022-09-28T01:46:16.277Z,36.13
2022-09-28T01:48:51.482Z,35.95
2022-09-28T01:51:29.193Z,36.00
2022-09-28T01:54:01.013Z,36.12
2022-09-28T01:56:42.051Z,36.34
2022-09-28T01:59:15.576Z,36.02
2022-09-28T02:01:52.041Z,36.33
2022-09-28T02:04:22.904Z,36.00
2022-09-28T02:06:57.431Z,36.26
2022-09-28T02:09:43.012Z,36.06
2022-09-28T02:12:16.118Z,36.17
2022-09-28T02:14:46.961Z,36.21
2022-09-28T02:17:16.068Z,36.00
2022-09-28T02:19:43.094Z,35.95
2022-09-28T02:22:45.634Z,36.20
2022-09-28T02:25:16.303Z,35.82
2022-09-28T02:27:45.372Z,36.47
2022-09-28T02:30:12.472Z,36.27
2022-09-28T02:32:43.027Z,36.37
2022-09-28T02:35:12.257Z,35.99
2022-09-28T02:37:42.102Z,36.55
2022-09-28T02:40:15.768Z,36.27
2022-09-28T02:43:09.304Z,36.14
2022-09-28T02:46:03.904Z,35.82
2022-09-28T02:48:43.244Z,36.45
2022-09-28T02:51:38.260Z,36.33
2022-09-28T02:54:29.597Z,36.17
2022-09-28T02:57:12.610Z,35.92
2022-09-28T02:59:52.312Z,35.89
2022-09-28T03:02:32.330Z,35.83
2022-09-28T03:05:01.773Z,36.00
2022-09-28T03:07:39.442Z,36.19
2022-09-28T03:10:27.844Z,35.91
2022-09-28T03:12:55.552Z,36.43
2022-09-28T03:15:28.023Z,35.92
2022-09-28T03:17:54.461Z,36.51
2022-09-28T03:20:20.895Z,36.03
2022-09-28T03:23:05.933Z,36.46
2022-09-28T03:25:33.887Z,36.03
2022-09-28T03:28:00.455Z,36.17
2022-09-28T03:30:26.906Z,36.27
2022-09-28T03:33:00.375Z,36.18
2022-09-28T03:35:26.925Z,36.34
2022-09-28T03:37:56.901Z,36.18
2022-09-28T03:40:23.406Z,36.44
2022-09-28T03:42:49.871Z,36.07
2022-09-28T03:45:16.363Z,36.37
2022-09-28T03:47:46.713Z,36.45
2022-09-28T03:50:13.729Z,36.23
2022-09-28T03:52:40.208Z,36.35
2022-09-28T03:55:06.958Z,36.29
2022-09-28T03:57:33.318Z,36.52
2022-09-28T03:59:59.970Z,36.18
2022-09-28T04:02:26.382Z,36.63
2022-09-28T04:04:52.911Z,36.58
2022-09-28T04:07:19.258Z,36.96
2022-09-28T04:09:45.673Z,36.78
2022-09-28T04:12:12.053Z,36.94
2022-09-28T04:14:40.915Z,36.81
2022-09-28T04:17:07.819Z,37.33
2022-09-28T04:19:34.195Z,37.41
2022-09-28T04:22:02.119Z,37.13
2022-09-28T04:24:28.549Z,37.02
2022-09-28T04:27:14.906Z,37.16
2022-09-28T04:29:41.650Z,37.12
2022-09-28T04:32:08.086Z,37.05
2022-09-28T04:34:37.896Z,37.28
2022-09-28T04:37:06.028Z,37.48
2022-09-28T04:39:32.405Z,37.44
2022-09-28T04:41:58.915Z,37.35
2022-09-28T04:44:25.324Z,36.86
2022-09-28T04:46:51.765Z,37.22
2022-09-28T04:49:18.307Z,37.26
2022-09-28T04:51:44.815Z,36.99
2022-09-28T04:54:11.196Z,37.12
2022-09-28T04:56:37.684Z,37.22
2022-09-28T04:59:04.160Z,37.03
2022-09-28T05:01:31.246Z,36.81
2022-09-28T05:03:57.702Z,37.43
2022-09-28T05:06:27.905Z,36.90
2022-09-28T05:08:57.249Z,36.80
2022-09-28T05:11:24.068Z,37.23
2022-09-28T05:13:50.617Z,36.98
2022-09-28T05:16:17.654Z,37.24
2022-09-28T05:18:44.064Z,37.50
2022-09-28T05:21:14.826Z,37.12
2022-09-28T05:23:46.667Z,36.89
2022-09-28T05:26:13.530Z,37.00
2022-09-28T05:28:39.904Z,36.95
2022-09-28T05:31:06.338Z,37.59
2022-09-28T05:33:33.353Z,37.64
2022-09-28T05:36:01.699Z,37.52
2022-09-28T05:38:28.853Z,37.79
2022-09-28T05:40:55.621Z,37.40
2022-09-28T05:43:23.347Z,37.81
2022-09-28T05:45:55.105Z,37.76
2022-09-28T05:48:22.522Z,37.89
2022-09-28T05:50:52.519Z,37.71
2022-09-28T05:53:19.636Z,37.31
2022-09-28T05:55:46.070Z,37.72
2022-09-28T05:58:12.526Z,37.74
2022-09-28T06:00:39.003Z,37.59
2022-09-28T06:03:09.169Z,37.73
2022-09-28T06:05:36.518Z,37.46
2022-09-28T06:08:08.210Z,37.79
2022-09-28T06:10:34.713Z,37.71
2022-09-28T06:13:01.238Z,37.33
2022-09-28T06:15:29.802Z,37.62
2022-09-28T06:18:07.767Z,37.69
2022-09-28T06:20:37.157Z,37.68
2022-09-28T06:23:04.202Z,37.31
2022-09-28T06:25:30.579Z,37.66
2022-09-28T06:28:14.448Z,37.29
2022-09-28T06:30:42.198Z,37.67
2022-09-28T06:33:12.696Z,37.22
2022-09-28T06:35:40.594Z,37.13
2022-09-28T06:38:06.982Z,37.25
2022-09-28T06:40:33.998Z,37.40
2022-09-28T06:43:10.516Z,37.39
2022-09-28T06:45:38.493Z,37.21
2022-09-28T06:48:05.731Z,37.24
2022-09-28T06:50:37.308Z,37.31
2022-09-28T06:53:09.496Z,37.39
2022-09-28T06:55:39.359Z,37.02
2022-09-28T06:58:10.221Z,37.05
2022-09-28T07:00:38.377Z,37.39
2022-09-28T07:03:11.904Z,36.81
2022-09-28T07:05:45.503Z,36.94
2022-09-28T07:08:12.851Z,37.20
2022-09-28T07:10:44.032Z,36.88
2022-09-28T07:13:35.494Z,36.90
2022-09-28T07:16:01.864Z,37.30
2022-09-28T07:18:29.911Z,37.05
2022-09-28T07:20:59.643Z,37.28
2022-09-28T07:23:29.565Z,37.17
2022-09-28T07:25:58.053Z,36.81
2022-09-28T07:28:24.599Z,36.93
2022-09-28T07:30:51.045Z,36.85
2022-09-28T07:33:17.887Z,37.14
2022-09-28T07:35:55.397Z,36.79
2022-09-28T07:38:22.030Z,37.08
2022-09-28T07:41:06.897Z,36.97
2022-09-28T07:43:33.373Z,36.92
2022-09-28T07:45:59.838Z,36.62
2022-09-28T07:48:26.272Z,37.12
2022-09-28T07:50:55.076Z,37.11
2022-09-28T07:53:23.220Z,36.62
2022-09-28T07:56:04.370Z,36.79
2022-09-28T07:58:32.845Z,36.75
2022-09-28T08:01:02.704Z,37.02
2022-09-28T08:03:29.107Z,37.04
2022-09-28T08:06:03.528Z,36.50
2022-09-28T08:08:31.022Z,36.75
2022-09-28T08:10:57.969Z,36.34
2022-09-28T08:13:27.505Z,36.49
2022-09-28T08:15:54.837Z,36.82
2022-09-28T08:18:21.767Z,36.41
2022-09-28T08:21:10.901Z,36.37
2022-09-28T08:23:38.359Z,36.77
2022-09-28T08:26:05.188Z,36.68
2022-09-28T08:28:35.610Z,36.79
2022-09-28T08:31:02.177Z,36.49
2022-09-28T08:33:28.651Z,36.73
2022-09-28T08:35:59.794Z,36.40
2022-09-28T08:38:28.104Z,36.72
2022-09-28T08:41:06.011Z,36.52
2022-09-28T08:44:06.150Z,35.97
2022-09-28T08:46:37.610Z,36.56
2022-09-28T08:49:32.474Z,36.25
2022-09-28T08:52:09.467Z,36.30
2022-09-28T08:54:51.687Z,36.42
2022-09-28T08:57:25.812Z,36.13
2022-09-28T08:59:56.823Z,36.52
2022-09-28T09:02:34.694Z,36.07
2022-09-28T09:05:06.543Z,36.36
2022-09-28T09:08:01.170Z,36.39
2022-09-28T09:10:48.071Z,35.97
2022-09-28T09:13:45.675Z,36.32
2022-09-28T09:16:34.001Z,36.41
2022-09-28T09:19:32.917Z,36.38
2022-09-28T09:22:15.539Z,36.42
2022-09-28T09:24:57.568Z,36.10
2022-09-28T09:28:02.051Z,36.31
2022-09-28T09:30:37.697Z,36.50
2022-09-28T09:33:23.037Z,36.31
2022-09-28T09:36:04.962Z,36.36
2022-09-28T09:38:52.868Z,36.25
2022-09-28T09:41:22.400Z,36.17
2022-09-28T09:44:11.627Z,36.07
2022-09-28T09:46:41.763Z,36.43
2022-09-28T09:49:31.052Z,36.16
2022-09-28T09:52:00.712Z,36.08
2022-09-28T09:54:35.569Z,36.00
2022-09-28T09:57:24.955Z,36.00
2022-09-28T09:59:52.036Z,36.33
2022-09-28T10:02:31.591Z,36.10
2022-09-28T10:05:15.095Z,35.90
2022-09-28T10:08:04.746Z,35.91
2022-09-28T10:10:35.456Z,35.79
2022-09-28T10:13:02.425Z,36.23
2022-09-28T10:15:32.035Z,35.95
2022-09-28T10:18:03.366Z,36.28
2022-09-28T10:20:36.972Z,36.16
2022-09-28T10:23:06.727Z,36.06
2022-09-28T10:25:37.582Z,36.05
2022-09-28T10:28:06.286Z,36.36
2022-09-28T10:30:44.100Z,36.12
2022-09-28T10:33:31.621Z,35.78
2022-09-28T10:36:00.202Z,36.22
2022-09-28T10:38:27.951Z,36.02
2022-09-28T10:40:58.499Z,36.14
2022-09-28T10:43:33.444Z,35.85
2022-09-28T10:46:01.724Z,36.26
2022-09-28T10:48:32.523Z,35.70
2022-09-28T10:51:07.654Z,35.62
2022-09-28T10:53:37.040Z,35.83
2022-09-28T10:56:23.199Z,35.66
2022-09-28T10:58:49.633Z,35.91
2022-09-28T11:01:31.200Z,36.10
2022-09-28T11:04:01.577Z,35.71
2022-09-28T11:06:41.774Z,35.63
2022-09-28T11:09:29.863Z,35.54
2022-09-28T11:11:59.398Z,36.07
2022-09-28T11:14:41.136Z,35.94
2022-09-28T11:17:27.512Z,35.77
2022-09-28T11:19:59.860Z,35.67
2022-09-28T11:22:41.805Z,35.87
2022-09-28T11:25:17.143Z,35.56
2022-09-28T11:27:52.712Z,35.61
2022-09-28T11:30:38.310Z,35.44
2022-09-28T11:33:22.806Z,35.70
2022-09-28T11:36:13.758Z,35.81
2022-09-28T11:38:57.891Z,35.80
2022-09-28T11:41:55.253Z,35.95
2022-09-28T11:44:44.770Z,36.04
2022-09-28T11:47:37.463Z,35.52
2022-09-28T11:50:22.878Z,35.73
2022-09-28T11:53:12.030Z,35.64
2022-09-28T11:55:57.168Z,35.91
2022-09-28T11:58:46.695Z,35.79
2022-09-28T12:01:35.526Z,35.66
2022-09-28T12:04:21.391Z,35.59
2022-09-28T12:06:56.894Z,35.87
2022-09-28T12:09:36.397Z,35.92
2022-09-28T12:12:15.670Z,35.88
2022-09-28T12:14:42.274Z,35.57
2022-09-28T12:17:20.229Z,35.44
2022-09-28T12:20:24.675Z,35.59
2022-09-28T12:22:59.850Z,35.65
2022-09-28T12:25:29.329Z,35.88
2022-09-28T12:28:08.343Z,35.45
2022-09-28T12:30:40.613Z,35.85
2022-09-28T12:33:15.231Z,35.65
2022-09-28T12:36:05.797Z,35.33
2022-09-28T12:39:14.739Z,35.71
2022-09-28T12:41:53.055Z,35.88
2022-09-28T12:44:23.514Z,35.73
2022-09-28T12:47:23.308Z,35.43
2022-09-28T12:53:29.835Z,35.77
2022-09-28T12:56:10.719Z,35.60
2022-09-28T12:58:46.186Z,35.41
2022-09-28T13:01:35.802Z,35.38
2022-09-28T13:04:13.326Z,35.75
2022-09-28T13:06:47.129Z,35.40
2022-09-28T13:09:20.530Z,35.79
2022-09-28T13:12:11.706Z,35.26
2022-09-28T13:15:00.631Z,35.71
2022-09-28T13:17:48.363Z,35.27
2022-09-28T13:20:24.049Z,35.43
2022-09-28T13:23:07.905Z,35.69
2022-09-28T13:25:38.568Z,35.84
2022-09-28T13:28:06.047Z,35.42
2022-09-28T13:30:36.451Z,35.42
2022-09-28T13:33:05.808Z,35.58
2022-09-28T13:35:33.282Z,35.77
2022-09-28T13:38:17.863Z,35.68
2022-09-28T13:41:02.945Z,35.42
2022-09-28T13:43:53.486Z,35.52
2022-09-28T13:46:38.658Z,35.65
2022-09-28T13:49:32.927Z,35.61
2022-09-28T13:52:30.522Z,35.65
2022-09-28T13:54:59.674Z,35.68
2022-09-28T13:57:36.218Z,35.82
2022-09-28T14:00:10.772Z,36.01
2022-09-28T14:02:46.535Z,35.57
2022-09-28T14:05:44.086Z,35.96
2022-09-28T14:09:04.717Z,35.82
2022-09-28T14:11:34.333Z,35.73
2022-09-28T14:14:13.861Z,35.98
2022-09-28T14:16:42.187Z,36.07
2022-09-28T14:19:11.796Z,35.82
2022-09-28T14:21:56.235Z,35.64
2022-09-28T14:24:22.581Z,35.96
2022-09-28T14:27:13.797Z,36.13
2022-09-28T14:29:41.243Z,35.92
2022-09-28T14:32:10.384Z,36.38
2022-09-28T14:34:41.467Z,36.07
2022-09-28T14:37:54.522Z,36.34
2022-09-28T14:40:43.774Z,36.48
2022-09-28T14:43:25.946Z,36.24
2022-09-28T14:46:13.065Z,36.52
2022-09-28T14:48:53.225Z,36.55
2022-09-28T14:51:33.797Z,36.62
2022-09-28T14:54:06.541Z,36.50
2022-09-28T14:56:45.860Z,36.63
2022-09-28T14:59:18.116Z,36.91
2022-09-28T15:02:00.993Z,36.83
2022-09-28T15:04:30.724Z,37.80
2022-09-28T15:07:00.209Z,37.15
2022-09-28T15:09:34.613Z,37.06
2022-09-28T15:12:15.094Z,37.66
2022-09-28T15:14:47.748Z,37.64
2022-09-28T15:17:21.301Z,37.46
2022-09-28T15:19:51.156Z,39.29
2022-09-28T15:22:18.505Z,39.79
2022-09-28T15:25:01.344Z,38.72
2022-09-28T15:27:36.907Z,38.09
2022-09-28T15:30:42.398Z,38.04
2022-09-28T15:33:42.599Z,38.20
2022-09-28T15:36:16.594Z,38.86
2022-09-28T15:38:43.224Z,38.45
2022-09-28T15:41:11.094Z,38.92
2022-09-28T15:43:37.885Z,39.60
2022-09-28T15:46:22.562Z,38.83
2022-09-28T15:48:59.618Z,38.67
2022-09-28T15:51:27.436Z,39.96
2022-09-28T15:54:04.533Z,39.57
2022-09-28T15:56:31.597Z,39.87
2022-09-28T15:59:13.518Z,39.25
2022-09-28T16:01:43.407Z,39.77
2022-09-28T16:04:38.790Z,39.68
2022-09-28T16:07:11.863Z,39.76
2022-09-28T16:09:56.936Z,39.84
2022-09-28T16:12:30.152Z,39.91
2022-09-28T16:14:57.129Z,40.10
2022-09-28T16:17:32.452Z,39.73
2022-09-28T16:20:19.054Z,39.25
2022-09-28T16:22:45.735Z,40.21
2022-09-28T16:25:19.665Z,40.52
2022-09-28T16:27:46.070Z,40.74
2022-09-28T16:30:24.304Z,40.20
2022-09-28T16:32:53.660Z,40.24
2022-09-28T16:35:26.186Z,39.96
2022-09-28T16:38:00.427Z,39.41
2022-09-28T16:40:27.392Z,39.21
2022-09-28T16:42:57.364Z,39.87
2022-09-28T16:45:24.207Z,40.20
2022-09-28T16:47:52.792Z,40.21
2022-09-28T16:50:21.317Z,40.20
2022-09-28T16:53:19.594Z,39.33
2022-09-28T16:55:48.511Z,39.53
2022-09-28T16:58:15.412Z,40.03
2022-09-28T17:00:43.390Z,40.15
2022-09-28T17:03:15.342Z,39.58
2022-09-28T17:05:42.361Z,39.38
2022-09-28T17:08:14.654Z,39.34
2022-09-28T17:11:13.836Z,39.36
2022-09-28T17:13:39.893Z,40.03
2022-09-28T17:16:11.775Z,39.82
2022-09-28T17:18:39.780Z,40.25
2022-09-28T17:21:10.714Z,39.63
2022-09-28T17:23:37.075Z,39.67
2022-09-28T17:26:04.601Z,39.78
2022-09-28T17:28:33.847Z,39.98
2022-09-28T17:31:04.064Z,39.67
2022-09-28T17:33:30.563Z,39.54
2022-09-28T17:36:00.307Z,39.91
2022-09-28T17:38:27.267Z,40.01
2022-09-28T17:40:53.712Z,40.08
2022-09-28T17:43:22.126Z,39.85
2022-09-28T17:45:49.395Z,39.86
2022-09-28T17:48:18.074Z,39.88
2022-09-28T17:50:47.318Z,40.00
2022-09-28T17:53:14.388Z,39.85
2022-09-28T17:55:42.930Z,40.25
2022-09-28T17:58:18.700Z,40.11
2022-09-28T18:00:50.586Z,39.73
2022-09-28T18:03:20.202Z,39.78
2022-09-28T18:05:57.979Z,40.17
2022-09-28T18:08:24.410Z,40.13
2022-09-28T18:10:50.789Z,39.78
2022-09-28T18:13:17.211Z,40.07
2022-09-28T18:15:43.675Z,39.97
2022-09-28T18:18:10.369Z,40.33
2022-09-28T18:20:37.343Z,39.71
2022-09-28T18:23:04.095Z,40.20
2022-09-28T18:25:30.936Z,39.91
2022-09-28T18:27:57.560Z,40.12
2022-09-28T18:30:24.948Z,39.91
2022-09-28T18:32:51.461Z,40.23
2022-09-28T18:35:22.620Z,39.90
2022-09-28T18:37:49.847Z,40.20
2022-09-28T18:40:16.406Z,40.41
2022-09-28T18:42:42.852Z,40.22
2022-09-28T18:45:13.171Z,40.37
2022-09-28T18:47:39.964Z,39.82
2022-09-28T18:50:06.906Z,40.12
2022-09-28T18:52:36.819Z,40.24
2022-09-28T18:55:05.204Z,39.86
2022-09-28T18:57:34.782Z,39.98
2022-09-28T19:00:07.789Z,39.83
2022-09-28T19:02:34.605Z,40.08
2022-09-28T19:05:01.147Z,40.34
2022-09-28T19:07:27.662Z,40.34
2022-09-28T19:09:54.061Z,40.22
2022-09-28T19:12:20.647Z,40.43
2022-09-28T19:14:47.070Z,40.17
2022-09-28T19:17:13.656Z,39.86
2022-09-28T19:19:42.665Z,40.19
2022-09-28T19:22:09.092Z,40.31
2022-09-28T19:24:35.680Z,40.11
2022-09-28T19:27:02.063Z,39.88
2022-09-28T19:29:28.419Z,39.56
2022-09-28T19:31:56.665Z,40.12
2022-09-28T19:34:26.805Z,40.43
2022-09-28T19:36:53.196Z,40.10
2022-09-28T19:39:19.794Z,40.18
2022-09-28T19:41:52.949Z,40.35
2022-09-28T19:44:28.067Z,40.29
2022-09-28T19:47:06.590Z,40.36
2022-09-28T19:49:37.957Z,40.59
2022-09-28T19:52:13.191Z,40.23
2022-09-28T19:54:41.145Z,40.67
2022-09-28T19:57:08.433Z,40.66
2022-09-28T19:59:38.849Z,40.75
2022-09-28T20:02:06.774Z,40.97
2022-09-28T20:04:33.257Z,40.58
2022-09-28T20:07:00.182Z,40.67
2022-09-28T20:09:26.665Z,40.84
2022-09-28T20:11:53.153Z,40.58
2022-09-28T20:14:19.671Z,40.82
2022-09-28T20:16:46.542Z,40.49
2022-09-28T20:19:13.055Z,40.43
2022-09-28T20:21:39.487Z,40.72
2022-09-28T20:24:05.935Z,40.30
2022-09-28T20:26:37.322Z,40.14
2022-09-28T20:29:07.750Z,40.09
2022-09-28T20:31:38.514Z,40.32
2022-09-28T20:34:06.403Z,40.53
2022-09-28T20:36:33.339Z,40.17
2022-09-28T20:39:06.950Z,40.28
2022-09-28T20:41:36.602Z,40.39
2022-09-28T20:44:05.966Z,40.60
2022-09-28T20:46:33.535Z,40.55
2022-09-28T20:49:00.239Z,40.15
2022-09-28T20:51:26.800Z,40.51
2022-09-28T20:53:55.409Z,40.43
2022-09-28T20:56:23.165Z,39.96
2022-09-28T20:58:51.075Z,39.87
2022-09-28T21:01:20.706Z,40.01
2022-09-28T21:03:48.542Z,40.03
2022-09-28T21:06:19.531Z,40.26
2022-09-28T21:08:46.816Z,39.73
2022-09-28T21:11:14.462Z,39.79
2022-09-28T21:13:42.866Z,40.09
2022-09-28T21:16:11.665Z,39.84
2022-09-28T21:18:39.551Z,39.75
2022-09-28T21:21:07.957Z,39.53
2022-09-28T21:23:35.422Z,39.47
2022-09-28T21:26:10.242Z,39.36
2022-09-28T21:28:37.685Z,39.66
2022-09-28T21:31:10.151Z,39.90
2022-09-28T21:33:37.335Z,39.64
2022-09-28T21:36:06.277Z,39.37
2022-09-28T21:38:32.966Z,39.72
2022-09-28T21:41:00.180Z,39.22
2022-09-28T21:43:28.150Z,39.77
2022-09-28T21:45:55.875Z,39.25
2022-09-28T21:48:24.218Z,39.78
2022-09-28T21:50:55.722Z,39.28
2022-09-28T21:53:22.875Z,39.40
2022-09-28T21:55:52.927Z,39.46
2022-09-28T21:58:24.651Z,39.06
2022-09-28T22:01:02.568Z,38.95
2022-09-28T22:03:30.278Z,39.29
2022-09-28T22:05:56.678Z,39.65
2022-09-28T22:08:24.123Z,39.13
2022-09-28T22:11:01.737Z,39.01
2022-09-28T22:13:33.902Z,39.07
2022-09-28T22:16:00.448Z,39.39
2022-09-28T22:18:28.533Z,39.41
2022-09-28T22:21:07.238Z,38.94
2022-09-28T22:23:34.238Z,39.33
2022-09-28T22:26:13.842Z,39.02
2022-09-28T22:28:51.915Z,38.89
2022-09-28T22:31:20.393Z,39.09
2022-09-28T22:33:47.419Z,39.52
2022-09-28T22:36:17.138Z,39.24
2022-09-28T22:38:44.598Z,39.02
2022-09-28T22:41:11.415Z,39.28
2022-09-28T22:43:38.084Z,38.95
2022-09-28T22:46:19.765Z,38.72
2022-09-28T22:48:53.990Z,38.70
2022-09-28T22:51:24.238Z,39.21
2022-09-28T22:53:50.943Z,39.04
2022-09-28T22:56:19.147Z,39.21
2022-09-28T22:58:46.736Z,38.85
2022-09-28T23:01:22.220Z,38.96
2022-09-28T23:03:50.411Z,39.19
2022-09-28T23:06:18.878Z,38.88
2022-09-28T23:08:46.299Z,38.86
2022-09-28T23:11:13.382Z,39.24
2022-09-28T23:13:39.862Z,38.85
2022-09-28T23:16:11.762Z,38.66
2022-09-28T23:18:42.471Z,39.09
2022-09-28T23:21:15.343Z,38.91
2022-09-28T23:23:42.682Z,38.88
2022-09-28T23:26:17.442Z,38.82
2022-09-28T23:28:44.435Z,38.90
2022-09-28T23:31:16.443Z,38.83
2022-09-28T23:33:43.195Z,38.69
2022-09-28T23:36:09.973Z,38.71
2022-09-28T23:38:36.516Z,38.93
2022-09-28T23:41:02.931Z,38.47
2022-09-28T23:43:29.310Z,38.80
2022-09-28T23:45:55.722Z,38.48
2022-09-28T23:48:22.094Z,39.02
2022-09-28T23:50:48.623Z,38.89
2022-09-28T23:53:15.164Z,38.42
2022-09-28T23:55:42.719Z,38.62
2022-09-28T23:58:09.932Z,38.51
